Time;durP1;ratioP1;P1;durP2;ratioP2;P2;SDS_P1;SDS_P2;PMS_P1;PMS_P2;Temp;Humidity;BMP_temperature;BMP_pressure;BME280_temperature;BME280_humidity;BME280_pressure;Samples;Min_cycle;Max_cycle;Signal;HPM_P1;HPM_P2
2023/12/15 00:00:29;;;;;;;;;;;;;;;-144.99;100.00;52733.47;5076943;28;19975;-68
2023/12/15 00:02:56;;;;;;;;;;;;;;;-144.99;100.00;52723.28;5074952;28;19931;-68
2023/12/15 00:05:24;;;;;;;;;;;;;;;-144.99;100.00;52782.38;5073416;28;19964;-67
2023/12/15 00:07:51;;;;;;;;;;;;;;;-144.99;100.00;52717.16;5075790;28;19981;-68
2023/12/15 00:10:17;;;;;;;;;;;;;;;-144.99;100.00;52721.22;5072461;28;19930;-68
2023/12/15 00:12:44;;;;;;;;;;;;;;;-144.99;100.00;52709.00;5068959;28;19931;-68
2023/12/15 00:15:10;;;;;;;;;;;;;;;-144.99;100.00;52713.09;5071512;28;19978;-68
2023/12/15 00:17:37;;;;;;;;;;;;;;;-144.99;100.00;52717.16;5071532;28;19929;-68
2023/12/15 00:20:04;;;;;;;;;;;;;;;-144.99;100.00;52737.53;5072105;28;20358;-68
2023/12/15 00:22:31;;;;;;;;;;;;;;;-144.99;100.00;52727.34;5069059;28;19924;-66
2023/12/15 00:24:58;;;;;;;;;;;;;;;-144.99;100.00;52717.16;5068258;28;20238;-66
2023/12/15 00:27:24;;;;;;;;;;;;;;;-144.99;100.00;52704.94;5069745;28;19926;-67
2023/12/15 00:29:51;;;;;;;;;;;;;;;-144.99;100.00;52729.38;5069458;28;19974;-67
2023/12/15 00:32:17;;;;;;;;;;;;;;;-144.99;100.00;52733.47;5069878;28;19960;-66
2023/12/15 00:34:44;;;;;;;;;;;;;;;-144.99;100.00;52696.78;5069159;28;19925;-67
2023/12/15 00:37:10;;;;;;;;;;;;;;;-144.99;100.00;52696.78;5070890;28;20046;-67
2023/12/15 00:39:38;;;;;;;;;;;;;;;-144.99;100.00;52729.38;5072582;28;19928;-67
2023/12/15 00:42:05;;;;;;;;;;;;;;;-144.99;100.00;52694.72;5071938;28;19993;-68
2023/12/15 00:44:33;;;;;;;;;;;;;;;-144.99;100.00;52700.84;5069941;28;19970;-68
2023/12/15 00:47:00;;;;;;;;;;;;;;;-144.99;100.00;52664.16;5071504;28;20455;-68
2023/12/15 00:49:26;;;;;;;;;;;;;;;-144.99;100.00;52717.16;5072727;28;19924;-67
2023/12/15 00:51:53;;;;;;;;;;;;;;;-144.99;100.00;52733.47;5069195;28;19982;-67
2023/12/15 00:54:19;;;;;;;;;;;;;;;-144.99;100.00;52696.78;5071015;28;20044;-68
2023/12/15 00:56:47;;;;;;;;;;;;;;;-144.99;100.00;52668.22;5073695;28;20000;-67
2023/12/15 00:59:14;;;;;;;;;;;;;;;-144.99;100.00;52741.63;5079728;28;20453;-76
2023/12/15 01:01:40;;;;;;;;;;;;;;;-144.99;100.00;52729.38;5089869;28;20465;-76
2023/12/15 01:04:06;;;;;;;;;;;;;;;-144.99;100.00;52727.34;5072336;28;19934;-76
2023/12/15 01:06:32;;;;;;;;;;;;;;;-144.99;100.00;52713.09;5069087;28;20019;-74
2023/12/15 01:08:59;;;;;;;;;;;;;;;-144.99;100.00;52709.00;5071147;28;20461;-74
2023/12/15 01:11:25;;;;;;;;;;;;;;;-144.99;100.00;52692.69;5070785;28;20454;-75
2023/12/15 01:13:53;;;;;;;;;;;;;;;-144.99;100.00;52704.94;5070750;28;19924;-74
2023/12/15 01:16:19;;;;;;;;;;;;;;;-144.99;100.00;52692.69;5069522;28;20599;-75
2023/12/15 01:18:46;;;;;;;;;;;;;;;-144.99;100.00;52717.16;5069596;28;19992;-74
2023/12/15 01:21:12;;;;;;;;;;;;;;;-144.99;100.00;52709.00;5071325;28;20561;-74
2023/12/15 01:23:39;;;;;;;;;;;;;;;-144.99;100.00;52753.84;5076273;28;19970;-74
2023/12/15 01:26:05;;;;;;;;;;;;;;;-144.99;100.00;52745.69;5070043;28;19988;-75
2023/12/15 01:28:32;;;;;;;;;;;;;;;-144.99;100.00;52717.16;5085047;28;19964;-74
2023/12/15 01:31:01;;;;;;;;;;;;;;;-144.99;100.00;52692.69;5080832;28;19971;-75
2023/12/15 01:33:27;;;;;;;;;;;;;;;-144.99;100.00;52688.63;5070763;28;20355;-73
2023/12/15 01:35:54;;;;;;;;;;;;;;;-144.99;100.00;52700.84;5068376;28;19924;-73
2023/12/15 01:38:20;;;;;;;;;;;;;;;-144.99;100.00;52692.69;5068465;28;20458;-73
2023/12/15 01:40:47;;;;;;;;;;;;;;;-144.99;100.00;52696.78;5069659;28;20453;-73
2023/12/15 01:43:13;;;;;;;;;;;;;;;-144.99;100.00;52717.16;5090370;22;19974;-61
2023/12/15 01:45:39;;;;;;;;;;;;;;;-144.99;100.00;52717.16;5078247;28;20563;-60
2023/12/15 01:48:08;;;;;;;;;;;;;;;-144.99;100.00;52719.19;5085104;28;19952;-61
2023/12/15 01:50:34;;;;;;;;;;;;;;;-144.99;100.00;52721.22;5086363;28;19924;-61
2023/12/15 01:53:00;;;;;;;;;;;;;;;-144.99;100.00;52696.78;5084548;28;19981;-60
2023/12/15 01:55:27;;;;;;;;;;;;;;;-144.99;100.00;52668.22;5080753;28;20015;-63
2023/12/15 01:57:53;;;;;;;;;;;;;;;-144.99;100.00;52680.47;5083651;28;19975;-64
2023/12/15 02:00:20;;;;;;;;;;;;;;;-144.99;100.00;52686.59;5081544;28;19924;-64
2023/12/15 02:02:46;;;;;;;;;;;;;;;-144.99;100.00;52733.47;5087915;28;20392;-64
2023/12/15 02:05:14;;;;;;;;;;;;;;;-144.99;100.00;52717.16;5088314;28;20236;-64
2023/12/15 02:07:41;;;;;;;;;;;;;;;-144.99;100.00;52727.34;5084232;28;20409;-64
2023/12/15 02:10:07;;;;;;;;;;;;;;;-144.99;100.00;52692.69;5082016;28;19951;-64
2023/12/15 02:12:34;;;;;;;;;;;;;;;-144.99;100.00;52725.31;5084181;28;20395;-63
2023/12/15 02:15:00;;;;;;;;;;;;;;;-144.99;100.00;52688.63;5082182;28;19989;-68
2023/12/15 02:17:27;;;;;;;;;;;;;;;-144.99;100.00;52713.09;5084878;28;20026;-70
2023/12/15 02:19:53;;;;;;;;;;;;;;;-144.99;100.00;52709.00;5083267;28;19993;-65
2023/12/15 02:22:25;;;;;;;;;;;;;;;-144.99;100.00;52717.16;5082342;28;20403;-65
2023/12/15 02:24:51;;;;;;;;;;;;;;;-144.99;100.00;52717.16;5076702;28;19983;-65
2023/12/15 02:27:17;;;;;;;;;;;;;;;-144.99;100.00;52713.09;5080971;28;20015;-67
2023/12/15 02:29:44;;;;;;;;;;;;;;;-144.99;100.00;52684.53;5087715;28;19928;-68
2023/12/15 02:32:10;;;;;;;;;;;;;;;-144.99;100.00;52660.09;5086486;28;20518;-68
2023/12/15 02:34:37;;;;;;;;;;;;;;;-144.99;100.00;52721.22;5086960;28;20385;-68
2023/12/15 02:37:03;;;;;;;;;;;;;;;-144.99;100.00;52725.31;5081904;28;19924;-67
2023/12/15 02:39:31;;;;;;;;;;;;;;;-144.99;100.00;52704.94;5087696;28;20457;-67
2023/12/15 02:41:58;;;;;;;;;;;;;;;-144.99;100.00;52660.09;5076861;28;20347;-69
2023/12/15 02:44:24;;;;;;;;;;;;;;;-144.99;100.00;52698.81;5078082;28;19932;-67
2023/12/15 02:46:51;;;;;;;;;;;;;;;-144.99;100.00;52694.72;5075936;28;20495;-67
2023/12/15 02:49:18;;;;;;;;;;;;;;;-144.99;100.00;52700.84;5086089;28;19934;-68
2023/12/15 02:51:44;;;;;;;;;;;;;;;-144.99;100.00;52711.03;5078909;28;20432;-67
2023/12/15 02:54:11;;;;;;;;;;;;;;;-144.99;100.00;52709.00;5086035;28;19929;-69
2023/12/15 02:56:39;;;;;;;;;;;;;;;-144.99;100.00;52709.00;5084252;28;19930;-68
2023/12/15 02:59:05;;;;;;;;;;;;;;;-144.99;100.00;52702.88;5083456;28;20393;-67
2023/12/15 03:01:32;;;;;;;;;;;;;;;-144.99;100.00;52709.00;5090272;28;19924;-66
2023/12/15 03:03:58;;;;;;;;;;;;;;;-144.99;100.00;52713.09;5089739;28;20011;-66
2023/12/15 03:06:25;;;;;;;;;;;;;;;-144.99;100.00;52698.81;5088384;28;20019;-66
2023/12/15 03:08:51;;;;;;;;;;;;;;;-144.99;100.00;52696.78;5091335;28;19936;-67
2023/12/15 03:11:18;;;;;;;;;;;;;;;-144.99;100.00;52749.78;5089674;28;19929;-72
2023/12/15 03:13:45;;;;;;;;;;;;;;;-144.99;100.00;52696.78;5089496;28;20470;-70
2023/12/15 03:16:12;;;;;;;;;;;;;;;-144.99;100.00;52692.69;5090486;28;20378;-67
2023/12/15 03:18:39;;;;;;;;;;;;;;;-144.99;100.00;52698.81;5081742;28;20385;-67
2023/12/15 03:21:06;;;;;;;;;;;;;;;-144.99;100.00;52688.63;5090878;28;20019;-67
2023/12/15 03:23:32;;;;;;;;;;;;;;;-144.99;100.00;52696.78;5090238;28;19971;-67
2023/12/15 03:25:59;;;;;;;;;;;;;;;-144.99;100.00;52696.78;5090393;28;19989;-67
2023/12/15 03:28:25;;;;;;;;;;;;;;;-144.99;100.00;52711.03;5086521;28;19951;-67
2023/12/15 03:30:53;;;;;;;;;;;;;;;-144.99;100.00;52700.84;5087660;28;19952;-67
2023/12/15 03:33:19;;;;;;;;;;;;;;;-144.99;100.00;52709.00;5089237;28;20368;-66
2023/12/15 03:35:46;;;;;;;;;;;;;;;-144.99;100.00;52690.66;5088375;28;20324;-67
2023/12/15 03:38:14;;;;;;;;;;;;;;;-144.99;100.00;52709.00;5085901;28;20621;-67
2023/12/15 03:40:40;;;;;;;;;;;;;;;-144.99;100.00;52702.88;5090027;28;19924;-66
2023/12/15 03:43:07;;;;;;;;;;;;;;;-144.99;100.00;52696.78;5081763;28;19980;-66
2023/12/15 03:45:33;;;;;;;;;;;;;;;-144.99;100.00;52729.38;5089844;28;19978;-67
2023/12/15 03:48:01;;;;;;;;;;;;;;;-144.99;100.00;52680.47;5089011;28;19982;-67
2023/12/15 03:50:28;;;;;;;;;;;;;;;-144.99;100.00;52692.69;5089790;28;19959;-69
2023/12/15 03:52:54;;;;;;;;;;;;;;;-144.99;100.00;52684.53;5083676;28;20263;-70
2023/12/15 03:55:21;;;;;;;;;;;;;;;-144.99;100.00;52717.16;5091506;28;19924;-70
2023/12/15 03:57:47;;;;;;;;;;;;;;;-144.99;100.00;52700.84;5085328;28;20016;-70
2023/12/15 04:00:14;;;;;;;;;;;;;;;-144.99;100.00;52688.63;5084811;28;20014;-70
2023/12/15 04:02:40;;;;;;;;;;;;;;;-144.99;100.00;52713.09;5089247;28;20022;-72
2023/12/15 04:05:09;;;;;;;;;;;;;;;-144.99;100.00;52737.53;5089211;28;19928;-73
2023/12/15 04:07:35;;;;;;;;;;;;;;;-144.99;100.00;52692.69;5082529;28;19924;-73
2023/12/15 04:10:02;;;;;;;;;;;;;;;-144.99;100.00;52721.22;5086543;28;20398;-71
2023/12/15 04:12:29;;;;;;;;;;;;;;;-144.99;100.00;52684.53;5089497;28;19923;-72
2023/12/15 04:14:55;;;;;;;;;;;;;;;-144.99;100.00;52709.00;5089797;28;20000;-71
2023/12/15 04:17:21;;;;;;;;;;;;;;;-144.99;100.00;52656.00;5089478;28;19939;-72
2023/12/15 04:19:48;;;;;;;;;;;;;;;-144.99;100.00;52713.09;5084400;28;19964;-72
2023/12/15 04:22:16;;;;;;;;;;;;;;;-144.99;100.00;52651.94;5086851;28;20023;-72
2023/12/15 04:24:42;;;;;;;;;;;;;;;-144.99;100.00;52709.00;5081993;28;19994;-72
2023/12/15 04:27:09;;;;;;;;;;;;;;;-144.99;100.00;52660.09;5076976;28;19964;-72
2023/12/15 04:29:35;;;;;;;;;;;;;;;-144.99;100.00;52713.09;5081877;28;20393;-72
2023/12/15 04:32:02;;;;;;;;;;;;;;;-144.99;100.00;52717.16;5088519;28;19940;-73
2023/12/15 04:34:29;;;;;;;;;;;;;;;-144.99;100.00;52717.16;5081058;28;20362;-72
2023/12/15 04:36:55;;;;;;;;;;;;;;;-144.99;100.00;52696.78;5075856;28;19928;-73
2023/12/15 04:39:23;;;;;;;;;;;;;;;-144.99;100.00;52725.31;5088515;28;20137;-65
2023/12/15 04:41:50;;;;;;;;;;;;;;;-144.99;100.00;52676.38;5082740;28;19974;-75
2023/12/15 04:44:16;;;;;;;;;;;;;;;-144.99;100.00;52721.22;5080269;28;20324;-75
2023/12/15 04:46:43;;;;;;;;;;;;;;;-144.99;100.00;52688.63;5080451;28;19973;-67
2023/12/15 04:49:09;;;;;;;;;;;;;;;-144.99;100.00;52656.00;5080639;28;19946;-65
2023/12/15 04:51:36;;;;;;;;;;;;;;;-144.99;100.00;52688.63;5086531;28;20021;-65
2023/12/15 04:54:02;;;;;;;;;;;;;;;-144.99;100.00;52709.00;5065393;28;19968;-66
2023/12/15 04:56:30;;;;;;;;;;;;;;;-144.99;100.00;52664.16;5081493;28;19985;-65
2023/12/15 04:58:57;;;;;;;;;;;;;;;-144.99;100.00;52688.63;5079722;28;19924;-68
2023/12/15 05:01:25;;;;;;;;;;;;;;;-144.99;100.00;52674.34;5086872;28;19974;-69
2023/12/15 05:03:51;;;;;;;;;;;;;;;-144.99;100.00;52688.63;5084988;28;19924;-65
2023/12/15 05:06:18;;;;;;;;;;;;;;;-144.99;100.00;52678.44;5082076;28;19928;-65
2023/12/15 05:08:45;;;;;;;;;;;;;;;-144.99;100.00;52729.38;5085941;28;20297;-65
2023/12/15 05:11:14;;;;;;;;;;;;;;;-144.99;100.00;52694.72;5087295;28;20205;-66
2023/12/15 05:13:42;;;;;;;;;;;;;;;-144.99;100.00;52700.84;5084748;28;20026;-65
2023/12/15 05:16:08;;;;;;;;;;;;;;;-144.99;100.00;52688.63;5080934;28;19968;-66
2023/12/15 05:18:35;;;;;;;;;;;;;;;-144.99;100.00;52721.22;5087126;28;20446;-67
2023/12/15 05:21:02;;;;;;;;;;;;;;;-144.99;100.00;52688.63;5088395;28;19960;-68
2023/12/15 05:23:28;;;;;;;;;;;;;;;-144.99;100.00;52676.38;5086412;28;19938;-67
2023/12/15 05:25:55;;;;;;;;;;;;;;;-144.99;100.00;52688.63;5087139;28;20023;-69
2023/12/15 05:28:21;;;;;;;;;;;;;;;-144.99;100.00;52704.94;5083912;28;19978;-73
2023/12/15 05:30:49;;;;;;;;;;;;;;;-144.99;100.00;52704.94;5087284;28;19959;-74
2023/12/15 05:33:16;;;;;;;;;;;;;;;-144.99;100.00;52700.84;5089934;28;19994;-74
2023/12/15 05:35:42;;;;;;;;;;;;;;;-144.99;100.00;52678.44;5083737;28;19928;-74
2023/12/15 05:38:09;;;;;;;;;;;;;;;-144.99;100.00;52704.94;5083608;28;19977;-71
2023/12/15 05:40:35;;;;;;;;;;;;;;;-144.99;100.00;52668.22;5085384;28;20377;-71
2023/12/15 05:43:02;;;;;;;;;;;;;;;-144.99;100.00;52647.84;5089793;28;19924;-70
2023/12/15 05:45:28;;;;;;;;;;;;;;;-144.99;100.00;52700.84;5092092;28;20452;-69
2023/12/15 05:47:56;;;;;;;;;;;;;;;-144.99;100.00;52721.22;5092523;28;19940;-69
2023/12/15 05:50:22;;;;;;;;;;;;;;;-144.99;100.00;52688.63;5083889;28;20030;-70
2023/12/15 05:52:49;;;;;;;;;;;;;;;-144.99;100.00;52692.69;5084390;28;19956;-70
2023/12/15 05:55:15;;;;;;;;;;;;;;;-144.99;100.00;52731.44;5084999;28;19970;-70
2023/12/15 05:57:42;;;;;;;;;;;;;;;-144.99;100.00;52672.31;5086587;28;19973;-74
2023/12/15 06:00:09;;;;;;;;;;;;;;;-144.99;100.00;52668.22;5086966;28;19989;-70
2023/12/15 06:02:36;;;;;;;;;;;;;;;-144.99;100.00;52709.00;5081675;28;19924;-67
2023/12/15 06:05:04;;;;;;;;;;;;;;;-144.99;100.00;52700.84;5085120;28;20113;-66
2023/12/15 06:07:32;;;;;;;;;;;;;;;-144.99;100.00;52672.31;5084074;28;19970;-66
2023/12/15 06:09:58;;;;;;;;;;;;;;;-144.99;100.00;52662.13;5086853;28;19924;-66
2023/12/15 06:12:25;;;;;;;;;;;;;;;-144.99;100.00;52717.16;5078699;28;19977;-69
2023/12/15 06:14:51;;;;;;;;;;;;;;;-144.99;100.00;52656.00;5082407;28;19928;-70
2023/12/15 06:17:19;;;;;;;;;;;;;;;-144.99;100.00;52692.69;5083764;28;20018;-70
2023/12/15 06:19:45;;;;;;;;;;;;;;;-144.99;100.00;52696.78;4380115;28;10000723;-70
2023/12/15 06:22:13;;;;;;;;;;;;;;;-144.99;100.00;52692.69;5080703;28;20054;-72
2023/12/15 06:24:40;;;;;;;;;;;;;;;-144.99;100.00;52694.72;5084030;28;19955;-71
2023/12/15 06:27:06;;;;;;;;;;;;;;;-144.99;100.00;52662.13;5080304;28;19975;-73
2023/12/15 06:29:33;;;;;;;;;;;;;;;-144.99;100.00;52725.31;5072019;28;19960;-72
2023/12/15 06:31:59;;;;;;;;;;;;;;;-144.99;100.00;52690.66;5076249;28;19975;-70
2023/12/15 06:34:26;;;;;;;;;;;;;;;-144.99;100.00;52660.09;5083260;28;20336;-70
2023/12/15 06:36:52;;;;;;;;;;;;;;;-144.99;100.00;52668.22;5085945;28;20006;-73
2023/12/15 06:39:20;;;;;;;;;;;;;;;-144.99;100.00;52672.31;5077688;28;20043;-72
2023/12/15 06:41:46;;;;;;;;;;;;;;;-144.99;100.00;52664.16;5082751;28;20455;-71
2023/12/15 06:44:13;;;;;;;;;;;;;;;-144.99;100.00;52704.94;5088664;28;19969;-71
2023/12/15 06:46:40;;;;;;;;;;;;;;;-144.99;100.00;52680.47;5076385;28;19935;-72
2023/12/15 06:49:06;;;;;;;;;;;;;;;-144.99;100.00;52680.47;5088922;28;19960;-71
2023/12/15 06:51:33;;;;;;;;;;;;;;;-144.99;100.00;52688.63;5079429;28;20023;-71
2023/12/15 06:53:59;;;;;;;;;;;;;;;-144.99;100.00;52678.44;5077463;28;20388;-70
2023/12/15 06:56:27;;;;;;;;;;;;;;;-144.99;100.00;52692.69;5080878;28;19928;-70
2023/12/15 06:58:53;;;;;;;;;;;;;;;-144.99;100.00;52690.66;5087522;28;20409;-70
2023/12/15 07:01:21;;;;;;;;;;;;;;;-144.99;100.00;52668.22;5084546;28;19936;-73
2023/12/15 07:03:48;;;;;;;;;;;;;;;-144.99;100.00;52696.78;5083323;28;19959;-72
2023/12/15 07:06:17;;;;;;;;;;;;;;;-144.99;100.00;52676.38;5090857;28;19943;-72
2023/12/15 07:08:43;;;;;;;;;;;;;;;-144.99;100.00;52680.47;5089337;28;20331;-73
2023/12/15 07:11:10;;;;;;;;;;;;;;;-144.99;100.00;52672.31;5081604;28;19928;-70
2023/12/15 07:13:38;;;;;;;;;;;;;;;-144.99;100.00;52688.63;5083228;28;19924;-71
2023/12/15 07:16:05;;;;;;;;;;;;;;;-144.99;100.00;52643.78;5087005;28;20015;-69
2023/12/15 07:18:32;;;;;;;;;;;;;;;-144.99;100.00;52706.97;5082710;28;20297;-72
2023/12/15 07:20:59;;;;;;;;;;;;;;;-144.99;100.00;52660.09;5070509;28;19928;-72
2023/12/15 07:23:25;;;;;;;;;;;;;;;-144.99;100.00;52643.78;5088144;28;20027;-72
2023/12/15 07:25:52;;;;;;;;;;;;;;;-144.99;100.00;52653.97;5083645;28;20419;-72
2023/12/15 07:28:18;;;;;;;;;;;;;;;-144.99;100.00;52660.09;5084960;28;19928;-71
2023/12/15 07:30:47;;;;;;;;;;;;;;;-144.99;100.00;52676.38;5082467;28;20015;-71
2023/12/15 07:33:14;;;;;;;;;;;;;;;-144.99;100.00;52696.78;5082545;28;20075;-72
2023/12/15 07:35:40;;;;;;;;;;;;;;;-144.99;100.00;52684.53;5080005;28;20021;-71
2023/12/15 07:38:07;;;;;;;;;;;;;;;-144.99;100.00;52668.22;5081995;28;20124;-72
2023/12/15 07:40:33;;;;;;;;;;;;;;;-144.99;100.00;52668.22;5086496;28;20541;-71
2023/12/15 07:43:00;;;;;;;;;;;;;;;-144.99;100.00;52682.50;5076417;28;20403;-72
2023/12/15 07:45:26;;;;;;;;;;;;;;;-144.99;100.00;52676.38;5088664;28;20258;-70
2023/12/15 07:47:56;;;;;;;;;;;;;;;-144.99;100.00;52686.59;5081282;28;19979;-71
2023/12/15 07:50:23;;;;;;;;;;;;;;;-144.99;100.00;52717.16;5086608;28;20183;-69
2023/12/15 07:52:50;;;;;;;;;;;;;;;-144.99;100.00;52684.53;5082424;28;19935;-70
2023/12/15 07:55:17;;;;;;;;;;;;;;;-144.99;100.00;52682.50;5079075;28;20404;-70
2023/12/15 07:57:44;;;;;;;;;;;;;;;-144.99;100.00;52656.00;5076433;28;20408;-71
2023/12/15 08:00:11;;;;;;;;;;;;;;;-144.99;100.00;52668.22;5079823;28;20068;-70
2023/12/15 08:02:37;;;;;;;;;;;;;;;-144.99;100.00;52660.09;5086823;28;20073;-70
2023/12/15 08:05:06;;;;;;;;;;;;;;;-144.99;100.00;52688.63;5083665;28;20019;-72
2023/12/15 08:07:32;;;;;;;;;;;;;;;-144.99;100.00;52660.09;5079839;28;20333;-70
2023/12/15 08:09:59;;;;;;;;;;;;;;;-144.99;100.00;52668.22;5079917;28;19971;-70
2023/12/15 08:12:25;;;;;;;;;;;;;;;-144.99;100.00;52713.09;5086829;28;20050;-69
2023/12/15 08:14:52;;;;;;;;;;;;;;;-144.99;100.00;52702.88;5074834;28;20034;-69
2023/12/15 08:17:18;;;;;;;;;;;;;;;-144.99;100.00;52680.47;5076681;28;20023;-70
2023/12/15 08:19:45;;;;;;;;;;;;;;;-144.99;100.00;52676.38;5085627;28;20401;-68
2023/12/15 08:22:13;;;;;;;;;;;;;;;-144.99;100.00;52702.88;5083727;28;19928;-70
2023/12/15 08:24:39;;;;;;;;;;;;;;;-144.99;100.00;52686.59;5087667;28;19931;-70
2023/12/15 08:27:06;;;;;;;;;;;;;;;-144.99;100.00;52668.22;5081717;28;19929;-69
2023/12/15 08:29:32;;;;;;;;;;;;;;;-144.99;100.00;52682.50;5081216;28;19931;-71
2023/12/15 08:31:59;;;;;;;;;;;;;;;-144.99;100.00;52668.22;5083899;28;19985;-69
2023/12/15 08:34:26;;;;;;;;;;;;;;;-144.99;100.00;52656.00;5083987;28;20662;-71
2023/12/15 08:36:53;;;;;;;;;;;;;;;-144.99;100.00;52662.13;5075360;28;19937;-71
2023/12/15 08:39:21;;;;;;;;;;;;;;;-144.99;100.00;52664.16;5083522;28;19924;-69
2023/12/15 08:41:47;;;;;;;;;;;;;;;-144.99;100.00;52700.84;5081367;28;19925;-70
2023/12/15 08:44:14;;;;;;;;;;;;;;;-144.99;100.00;52682.50;5082770;28;19924;-71
2023/12/15 08:46:40;;;;;;;;;;;;;;;-144.99;100.00;52647.84;5075853;28;20392;-70
2023/12/15 08:49:07;;;;;;;;;;;;;;;-144.99;100.00;52700.84;5083168;28;20027;-73
2023/12/15 08:51:34;;;;;;;;;;;;;;;-144.99;100.00;52651.94;5079743;28;19929;-71
2023/12/15 08:54:00;;;;;;;;;;;;;;;-144.99;100.00;52651.94;5087483;28;19928;-71
2023/12/15 08:56:28;;;;;;;;;;;;;;;-144.99;100.00;52647.84;5075188;28;20477;-75
2023/12/15 08:58:55;;;;;;;;;;;;;;;-144.99;100.00;52668.22;5076532;28;19974;-69
2023/12/15 09:01:22;;;;;;;;;;;;;;;-144.99;100.00;52643.78;5087455;28;20498;-71
2023/12/15 09:03:48;;;;;;;;;;;;;;;-144.99;100.00;52680.47;5087154;28;20360;-70
2023/12/15 09:06:14;;;;;;;;;;;;;;;-144.99;100.00;52668.22;5075787;28;20025;-69
2023/12/15 09:08:41;;;;;;;;;;;;;;;-144.99;100.00;52660.09;5078483;28;19936;-72
2023/12/15 09:11:08;;;;;;;;;;;;;;;-144.99;100.00;52692.69;5082914;28;19928;-71
2023/12/15 09:13:36;;;;;;;;;;;;;;;-144.99;100.00;52658.03;5083302;28;19935;-70
2023/12/15 09:16:02;;;;;;;;;;;;;;;-144.99;100.00;52639.69;5082054;28;20469;-70
2023/12/15 09:18:29;;;;;;;;;;;;;;;-144.99;100.00;52684.53;5085092;28;19924;-72
2023/12/15 09:20:55;;;;;;;;;;;;;;;-144.99;100.00;52641.72;5075684;28;20361;-71
2023/12/15 09:23:22;;;;;;;;;;;;;;;-144.99;100.00;52668.22;5077081;28;19959;-70
2023/12/15 09:25:49;;;;;;;;;;;;;;;-144.99;100.00;52676.38;5075734;28;19929;-71
2023/12/15 09:28:16;;;;;;;;;;;;;;;-144.99;100.00;52639.69;5078780;28;19977;-71
2023/12/15 09:30:44;;;;;;;;;;;;;;;-144.99;100.00;52664.16;5076179;28;19962;-70
2023/12/15 09:33:10;;;;;;;;;;;;;;;-144.99;100.00;52651.94;5076875;28;19973;-70
2023/12/15 09:35:37;;;;;;;;;;;;;;;-144.99;100.00;52668.22;5084879;28;20039;-69
2023/12/15 09:38:03;;;;;;;;;;;;;;;-144.99;100.00;52656.00;5076375;28;19986;-70
2023/12/15 09:40:30;;;;;;;;;;;;;;;-144.99;100.00;52653.97;5077053;28;20266;-71
2023/12/15 09:42:57;;;;;;;;;;;;;;;-144.99;100.00;52621.34;5074594;28;19924;-71
2023/12/15 09:45:23;;;;;;;;;;;;;;;-144.99;100.00;52639.69;5075010;28;20043;-69
2023/12/15 09:47:52;;;;;;;;;;;;;;;-144.99;100.00;52629.50;5078872;28;20394;-70
2023/12/15 09:50:20;;;;;;;;;;;;;;;-144.99;100.00;52653.97;5079866;28;20389;-70
2023/12/15 09:52:47;;;;;;;;;;;;;;;-144.99;100.00;52643.78;5080019;28;19928;-70
2023/12/15 09:55:13;;;;;;;;;;;;;;;-144.99;100.00;52639.69;5082389;28;20302;-70
2023/12/15 09:57:39;;;;;;;;;;;;;;;-144.99;100.00;52615.25;5082114;28;19951;-71
2023/12/15 10:00:06;;;;;;;;;;;;;;;-144.99;100.00;52662.13;5081948;28;19983;-70
2023/12/15 10:02:34;;;;;;;;;;;;;;;-144.99;100.00;52668.22;5084647;28;19986;-71
2023/12/15 10:05:02;;;;;;;;;;;;;;;-144.99;100.00;52709.00;5084241;28;19971;-72
2023/12/15 10:07:29;;;;;;;;;;;;;;;-144.99;100.00;52619.31;5076772;28;19928;-70
2023/12/15 10:09:56;;;;;;;;;;;;;;;-144.99;100.00;52639.69;5080485;28;19992;-70
2023/12/15 10:12:22;;;;;;;;;;;;;;;-144.99;100.00;52647.84;5083874;28;19932;-71
2023/12/15 10:14:49;;;;;;;;;;;;;;;-144.99;100.00;52635.63;5082659;28;20015;-71
2023/12/15 10:17:16;;;;;;;;;;;;;;;-144.99;100.00;52623.38;5081405;28;19971;-70
2023/12/15 10:19:42;;;;;;;;;;;;;;;-144.99;100.00;52617.28;5075198;28;19928;-70
2023/12/15 10:22:10;;;;;;;;;;;;;;;-144.99;100.00;52658.03;5072782;28;20356;-72
2023/12/15 10:24:37;;;;;;;;;;;;;;;-144.99;100.00;52676.38;5072337;28;19928;-72
2023/12/15 10:27:04;;;;;;;;;;;;;;;-144.99;100.00;52621.34;5077112;28;20356;-72
2023/12/15 10:29:30;;;;;;;;;;;;;;;-144.99;100.00;52658.03;5080544;28;19928;-73
2023/12/15 10:31:57;;;;;;;;;;;;;;;-144.99;100.00;52639.69;5078180;28;19992;-72
2023/12/15 10:34:24;;;;;;;;;;;;;;;-144.99;100.00;52607.09;5084094;28;19971;-70
2023/12/15 10:36:51;;;;;;;;;;;;;;;-144.99;100.00;52619.31;5077473;28;20209;-71
2023/12/15 10:39:20;;;;;;;;;;;;;;;-144.99;100.00;52660.09;5075533;28;20005;-70
2023/12/15 10:41:47;;;;;;;;;;;;;;;-144.99;100.00;52668.22;5081777;28;20338;-72
2023/12/15 10:44:14;;;;;;;;;;;;;;;-144.99;100.00;52643.78;5081345;28;19928;-71
2023/12/15 10:46:42;;;;;;;;;;;;;;;-144.99;100.00;52637.66;5074557;28;20161;-72
2023/12/15 10:49:09;;;;;;;;;;;;;;;-144.99;100.00;52660.09;5077779;28;20291;-69
2023/12/15 10:51:37;;;;;;;;;;;;;;;-144.99;100.00;52631.53;5080958;28;20035;-71
2023/12/15 10:54:05;;;;;;;;;;;;;;;-144.99;100.00;52660.09;5072316;28;20016;-70
2023/12/15 10:56:33;;;;;;;;;;;;;;;-144.99;100.00;52607.09;5082553;28;20317;-72
2023/12/15 10:59:00;;;;;;;;;;;;;;;-144.99;100.00;52660.09;5074678;28;19936;-69
2023/12/15 11:01:27;;;;;;;;;;;;;;;-144.99;100.00;52627.47;5083401;28;19964;-71
2023/12/15 11:03:54;;;;;;;;;;;;;;;-144.99;100.00;52615.25;5071067;28;19962;-70
2023/12/15 11:06:26;;;;;;;;;;;;;;;-144.99;100.00;52668.22;5086243;28;19928;-71
2023/12/15 11:08:52;;;;;;;;;;;;;;;-144.99;100.00;52639.69;5083646;28;20092;-71
2023/12/15 11:11:22;;;;;;;;;;;;;;;-144.99;100.00;52623.38;5077964;28;19928;-72
2023/12/15 11:13:53;;;;;;;;;;;;;;;-144.99;100.00;52621.34;5086881;28;19980;-70
2023/12/15 11:16:23;;;;;;;;;;;;;;;-144.99;100.00;52627.47;5085020;28;19928;-70
2023/12/15 11:18:51;;;;;;;;;;;;;;;-144.99;100.00;52582.63;5083230;28;19932;-71
2023/12/15 11:21:18;;;;;;;;;;;;;;;-144.99;100.00;52627.47;5081377;28;19955;-70
2023/12/15 11:23:53;;;;;;;;;;;;;;;-144.99;100.00;52656.00;5081494;28;19938;-70
2023/12/15 11:26:25;;;;;;;;;;;;;;;-144.99;100.00;52639.69;5081954;28;19935;-71
2023/12/15 11:28:56;;;;;;;;;;;;;;;-144.99;100.00;52651.94;5083764;28;19991;-71
2023/12/15 11:31:24;;;;;;;;;;;;;;;-144.99;100.00;52605.03;5084397;28;20026;-71
2023/12/15 11:33:50;;;;;;;;;;;;;;;-144.99;100.00;52664.16;5087155;28;20393;-69
2023/12/15 11:36:17;;;;;;;;;;;;;;;-144.99;100.00;52643.78;5084947;28;19932;-75
2023/12/15 11:38:47;;;;;;;;;;;;;;;-144.99;100.00;52639.69;5082472;28;19989;-73
2023/12/15 11:41:14;;;;;;;;;;;;;;;-144.99;100.00;52647.84;5080986;28;19978;-72
2023/12/15 11:43:43;;;;;;;;;;;;;;;-144.99;100.00;52656.00;5082167;28;20118;-70
2023/12/15 11:46:11;;;;;;;;;;;;;;;-144.99;100.00;52623.38;5080009;28;19967;-72
2023/12/15 11:48:38;;;;;;;;;;;;;;;-144.99;100.00;52639.69;5086203;28;19977;-72
2023/12/15 11:51:05;;;;;;;;;;;;;;;-144.99;100.00;52619.31;5076352;28;19993;-71
2023/12/15 11:53:32;;;;;;;;;;;;;;;-144.99;100.00;52658.03;5081250;28;19928;-71
2023/12/15 11:56:01;;;;;;;;;;;;;;;-144.99;100.00;52647.84;5085307;28;19932;-71
2023/12/15 11:58:27;;;;;;;;;;;;;;;-144.99;100.00;52672.31;5084514;28;19983;-71
2023/12/15 12:00:54;;;;;;;;;;;;;;;-144.99;100.00;52656.00;5086828;28;19974;-72
2023/12/15 12:03:23;;;;;;;;;;;;;;;-144.99;100.00;52670.28;5076686;28;19936;-70
2023/12/15 12:05:53;;;;;;;;;;;;;;;-144.99;100.00;52662.13;5080271;28;20019;-70
2023/12/15 12:08:21;;;;;;;;;;;;;;;-144.99;100.00;52660.09;5075645;28;20023;-74
2023/12/15 12:10:50;;;;;;;;;;;;;;;-144.99;100.00;52651.94;5081836;28;19989;-70
2023/12/15 12:13:16;;;;;;;;;;;;;;;-144.99;100.00;52615.25;5087513;28;19939;-71
2023/12/15 12:15:49;;;;;;;;;;;;;;;-144.99;100.00;52631.53;5090729;28;19927;-71